sensor_id;sensor_type;location;lat;lon;timestamp;temperature;humidity
6724;DHT22;3399;52.530;13.304;2022-11-20T00:00:51;0.70;99.90
6724;DHT22;3399;52.530;13.304;2022-11-20T00:03:16;0.70;99.90
6724;DHT22;3399;52.530;13.304;2022-11-20T00:05:43;0.70;99.90
6724;DHT22;3399;52.530;13.304;2022-11-20T00:08:09;0.70;99.90
6724;DHT22;3399;52.530;13.304;2022-11-20T00:10:39;0.70;99.90
6724;DHT22;3399;52.530;13.304;2022-11-20T00:13:05;0.70;99.90
6724;DHT22;3399;52.530;13.304;2022-11-20T00:15:31;0.70;99.90
6724;DHT22;3399;52.530;13.304;2022-11-20T00:17:56;0.70;99.90
6724;DHT22;3399;52.530;13.304;2022-11-20T00:20:22;0.70;99.90
6724;DHT22;3399;52.530;13.304;2022-11-20T00:22:47;0.70;99.90
6724;DHT22;3399;52.530;13.304;2022-11-20T00:25:14;0.70;99.90
6724;DHT22;3399;52.530;13.304;2022-11-20T00:27:39;0.70;99.90
6724;DHT22;3399;52.530;13.304;2022-11-20T00:30:05;0.70;99.90
6724;DHT22;3399;52.530;13.304;2022-11-20T00:32:31;0.70;99.90
6724;DHT22;3399;52.530;13.304;2022-11-20T00:34:56;0.60;99.90
6724;DHT22;3399;52.530;13.304;2022-11-20T00:37:22;0.70;99.90
6724;DHT22;3399;52.530;13.304;2022-11-20T00:39:47;0.70;99.90
6724;DHT22;3399;52.530;13.304;2022-11-20T00:42:13;0.60;99.90
6724;DHT22;3399;52.530;13.304;2022-11-20T00:44:39;0.70;99.90
6724;DHT22;3399;52.530;13.304;2022-11-20T00:47:04;0.70;99.90
6724;DHT22;3399;52.530;13.304;2022-11-20T00:49:30;0.70;99.90
6724;DHT22;3399;52.530;13.304;2022-11-20T00:51:55;0.60;99.90
6724;DHT22;3399;52.530;13.304;2022-11-20T00:54:21;0.70;99.90
6724;DHT22;3399;52.530;13.304;2022-11-20T00:56:46;0.70;99.90
6724;DHT22;3399;52.530;13.304;2022-11-20T00:59:12;0.70;99.90
6724;DHT22;3399;52.530;13.304;2022-11-20T01:01:37;0.60;99.90
6724;DHT22;3399;52.530;13.304;2022-11-20T01:04:03;0.60;99.90
6724;DHT22;3399;52.530;13.304;2022-11-20T01:06:34;0.60;99.90
6724;DHT22;3399;52.530;13.304;2022-11-20T01:09:09;0.60;99.90
6724;DHT22;3399;52.530;13.304;2022-11-20T01:11:38;0.60;99.90
6724;DHT22;3399;52.530;13.304;2022-11-20T01:14:06;0.50;99.90
6724;DHT22;3399;52.530;13.304;2022-11-20T01:16:35;0.50;99.90
6724;DHT22;3399;52.530;13.304;2022-11-20T01:19:03;0.50;99.90
6724;DHT22;3399;52.530;13.304;2022-11-20T01:21:33;0.60;99.90
6724;DHT22;3399;52.530;13.304;2022-11-20T01:23:59;0.60;99.90
6724;DHT22;3399;52.530;13.304;2022-11-20T01:26:27;0.60;99.90
6724;DHT22;3399;52.530;13.304;2022-11-20T01:28:54;0.60;99.90
6724;DHT22;3399;52.530;13.304;2022-11-20T01:31:28;0.60;99.90
6724;DHT22;3399;52.530;13.304;2022-11-20T01:33:56;0.60;99.90
6724;DHT22;3399;52.530;13.304;2022-11-20T01:36:24;0.60;99.90
6724;DHT22;3399;52.530;13.304;2022-11-20T01:38:54;0.60;99.90
6724;DHT22;3399;52.530;13.304;2022-11-20T01:41:21;0.60;99.90
6724;DHT22;3399;52.530;13.304;2022-11-20T01:44:05;0.60;99.90
6724;DHT22;3399;52.530;13.304;2022-11-20T01:46:39;0.60;99.90
6724;DHT22;3399;52.530;13.304;2022-11-20T01:49:19;0.60;99.90
6724;DHT22;3399;52.530;13.304;2022-11-20T01:51:50;0.50;99.90
6724;DHT22;3399;52.530;13.304;2022-11-20T01:54:21;0.50;99.90
6724;DHT22;3399;52.530;13.304;2022-11-20T01:56:51;0.50;99.90
6724;DHT22;3399;52.530;13.304;2022-11-20T01:59:17;0.50;99.90
6724;DHT22;3399;52.530;13.304;2022-11-20T02:01:44;0.60;99.90
6724;DHT22;3399;52.530;13.304;2022-11-20T02:04:10;0.70;99.90
6724;DHT22;3399;52.530;13.304;2022-11-20T02:06:48;0.60;99.90
6724;DHT22;3399;52.530;13.304;2022-11-20T02:09:15;0.60;99.90
6724;DHT22;3399;52.530;13.304;2022-11-20T02:11:41;0.50;99.90
6724;DHT22;3399;52.530;13.304;2022-11-20T02:14:08;0.50;99.90
6724;DHT22;3399;52.530;13.304;2022-11-20T02:16:37;0.50;99.90
6724;DHT22;3399;52.530;13.304;2022-11-20T02:19:09;0.50;99.90
6724;DHT22;3399;52.530;13.304;2022-11-20T02:21:43;0.50;99.90
6724;DHT22;3399;52.530;13.304;2022-11-20T02:24:16;0.50;99.90
6724;DHT22;3399;52.530;13.304;2022-11-20T02:26:59;0.60;99.90
6724;DHT22;3399;52.530;13.304;2022-11-20T02:29:33;0.50;99.90
6724;DHT22;3399;52.530;13.304;2022-11-20T02:32:01;0.50;99.90
6724;DHT22;3399;52.530;13.304;2022-11-20T02:34:28;0.50;99.90
6724;DHT22;3399;52.530;13.304;2022-11-20T02:36:54;0.40;99.90
6724;DHT22;3399;52.530;13.304;2022-11-20T02:39:22;0.40;99.90
6724;DHT22;3399;52.530;13.304;2022-11-20T02:41:50;0.30;99.90
6724;DHT22;3399;52.530;13.304;2022-11-20T02:44:18;0.30;99.90
6724;DHT22;3399;52.530;13.304;2022-11-20T02:46:43;0.30;99.90
6724;DHT22;3399;52.530;13.304;2022-11-20T02:49:09;0.30;99.90
6724;DHT22;3399;52.530;13.304;2022-11-20T02:51:35;0.30;99.90
6724;DHT22;3399;52.530;13.304;2022-11-20T02:54:01;0.30;99.90
6724;DHT22;3399;52.530;13.304;2022-11-20T02:56:27;0.30;99.90
6724;DHT22;3399;52.530;13.304;2022-11-20T02:58:53;0.30;99.90
6724;DHT22;3399;52.530;13.304;2022-11-20T03:01:19;0.30;99.90
6724;DHT22;3399;52.530;13.304;2022-11-20T03:03:48;0.30;99.90
6724;DHT22;3399;52.530;13.304;2022-11-20T03:06:15;0.30;99.90
6724;DHT22;3399;52.530;13.304;2022-11-20T03:08:44;0.30;99.90
6724;DHT22;3399;52.530;13.304;2022-11-20T03:11:10;0.30;99.90
6724;DHT22;3399;52.530;13.304;2022-11-20T03:13:36;0.30;99.90
6724;DHT22;3399;52.530;13.304;2022-11-20T03:16:07;0.30;99.90
6724;DHT22;3399;52.530;13.304;2022-11-20T03:18:33;0.30;99.90
6724;DHT22;3399;52.530;13.304;2022-11-20T03:20:59;0.30;99.90
6724;DHT22;3399;52.530;13.304;2022-11-20T03:23:25;0.30;99.90
6724;DHT22;3399;52.530;13.304;2022-11-20T03:25:51;0.30;99.90
6724;DHT22;3399;52.530;13.304;2022-11-20T03:28:16;0.40;99.90
6724;DHT22;3399;52.530;13.304;2022-11-20T03:30:42;0.40;99.90
6724;DHT22;3399;52.530;13.304;2022-11-20T03:33:07;0.30;99.90
6724;DHT22;3399;52.530;13.304;2022-11-20T03:35:33;0.30;99.90
6724;DHT22;3399;52.530;13.304;2022-11-20T03:37:58;0.30;99.90
6724;DHT22;3399;52.530;13.304;2022-11-20T03:40:24;0.30;99.90
6724;DHT22;3399;52.530;13.304;2022-11-20T03:42:49;0.30;99.90
6724;DHT22;3399;52.530;13.304;2022-11-20T03:45:16;0.30;99.90
6724;DHT22;3399;52.530;13.304;2022-11-20T03:47:43;0.30;99.90
6724;DHT22;3399;52.530;13.304;2022-11-20T03:50:10;0.30;99.90
6724;DHT22;3399;52.530;13.304;2022-11-20T03:52:37;0.30;99.90
6724;DHT22;3399;52.530;13.304;2022-11-20T03:55:04;0.20;99.90
6724;DHT22;3399;52.530;13.304;2022-11-20T03:57:29;0.30;99.90
6724;DHT22;3399;52.530;13.304;2022-11-20T03:59:55;0.30;99.90
6724;DHT22;3399;52.530;13.304;2022-11-20T04:02:20;0.30;99.90
6724;DHT22;3399;52.530;13.304;2022-11-20T04:04:46;0.30;99.90
6724;DHT22;3399;52.530;13.304;2022-11-20T04:07:11;0.20;99.90
6724;DHT22;3399;52.530;13.304;2022-11-20T04:09:37;0.20;99.90
6724;DHT22;3399;52.530;13.304;2022-11-20T04:12:02;0.20;99.90
6724;DHT22;3399;52.530;13.304;2022-11-20T04:14:28;0.10;99.90
6724;DHT22;3399;52.530;13.304;2022-11-20T04:16:53;0.10;99.90
6724;DHT22;3399;52.530;13.304;2022-11-20T04:19:19;0.10;99.90
6724;DHT22;3399;52.530;13.304;2022-11-20T04:21:44;0.10;99.90
6724;DHT22;3399;52.530;13.304;2022-11-20T04:24:10;0.10;99.90
6724;DHT22;3399;52.530;13.304;2022-11-20T04:26:36;0.00;99.90
6724;DHT22;3399;52.530;13.304;2022-11-20T04:29:02;0.10;99.90
6724;DHT22;3399;52.530;13.304;2022-11-20T04:31:29;0.10;99.90
6724;DHT22;3399;52.530;13.304;2022-11-20T04:33:55;0.20;99.90
6724;DHT22;3399;52.530;13.304;2022-11-20T04:36:25;0.20;99.90
6724;DHT22;3399;52.530;13.304;2022-11-20T04:38:53;0.20;99.90
6724;DHT22;3399;52.530;13.304;2022-11-20T04:41:22;0.20;99.90
6724;DHT22;3399;52.530;13.304;2022-11-20T04:43:49;0.30;99.90
6724;DHT22;3399;52.530;13.304;2022-11-20T04:46:16;0.30;99.90
6724;DHT22;3399;52.530;13.304;2022-11-20T04:48:42;0.40;99.90
6724;DHT22;3399;52.530;13.304;2022-11-20T04:51:07;0.40;99.90
6724;DHT22;3399;52.530;13.304;2022-11-20T04:53:33;0.40;99.90
6724;DHT22;3399;52.530;13.304;2022-11-20T04:56:16;0.50;99.90
6724;DHT22;3399;52.530;13.304;2022-11-20T04:58:42;0.40;99.90
6724;DHT22;3399;52.530;13.304;2022-11-20T05:01:20;0.50;99.90
6724;DHT22;3399;52.530;13.304;2022-11-20T05:03:46;0.40;99.90
6724;DHT22;3399;52.530;13.304;2022-11-20T05:06:14;0.40;99.90
6724;DHT22;3399;52.530;13.304;2022-11-20T05:08:40;0.40;99.90
6724;DHT22;3399;52.530;13.304;2022-11-20T05:11:08;0.40;99.90
6724;DHT22;3399;52.530;13.304;2022-11-20T05:13:35;0.40;99.90
6724;DHT22;3399;52.530;13.304;2022-11-20T05:16:03;0.40;99.90
6724;DHT22;3399;52.530;13.304;2022-11-20T05:18:28;0.50;99.90
6724;DHT22;3399;52.530;13.304;2022-11-20T05:20:57;0.40;99.90
6724;DHT22;3399;52.530;13.304;2022-11-20T05:23:24;0.40;99.90
6724;DHT22;3399;52.530;13.304;2022-11-20T05:25:53;0.40;99.90
6724;DHT22;3399;52.530;13.304;2022-11-20T05:28:20;0.40;99.90
6724;DHT22;3399;52.530;13.304;2022-11-20T05:30:45;0.40;99.90
6724;DHT22;3399;52.530;13.304;2022-11-20T05:33:11;0.40;99.90
6724;DHT22;3399;52.530;13.304;2022-11-20T05:35:36;0.30;99.90
6724;DHT22;3399;52.530;13.304;2022-11-20T05:38:02;0.40;99.90
6724;DHT22;3399;52.530;13.304;2022-11-20T05:40:27;0.30;99.90
6724;DHT22;3399;52.530;13.304;2022-11-20T05:42:53;0.30;99.90
6724;DHT22;3399;52.530;13.304;2022-11-20T05:45:18;0.30;99.90
6724;DHT22;3399;52.530;13.304;2022-11-20T05:47:44;0.30;99.90
6724;DHT22;3399;52.530;13.304;2022-11-20T05:50:09;0.30;99.90
6724;DHT22;3399;52.530;13.304;2022-11-20T05:52:35;0.40;99.90
6724;DHT22;3399;52.530;13.304;2022-11-20T05:55:00;0.40;99.90
6724;DHT22;3399;52.530;13.304;2022-11-20T05:57:26;0.40;99.90
6724;DHT22;3399;52.530;13.304;2022-11-20T05:59:51;0.50;99.90
6724;DHT22;3399;52.530;13.304;2022-11-20T06:02:17;0.50;99.90
6724;DHT22;3399;52.530;13.304;2022-11-20T06:04:43;0.60;99.90
6724;DHT22;3399;52.530;13.304;2022-11-20T06:07:09;0.50;99.90
6724;DHT22;3399;52.530;13.304;2022-11-20T06:09:35;0.60;99.90
6724;DHT22;3399;52.530;13.304;2022-11-20T06:12:01;0.60;99.90
6724;DHT22;3399;52.530;13.304;2022-11-20T06:14:26;0.60;99.90
6724;DHT22;3399;52.530;13.304;2022-11-20T06:16:53;0.60;99.90
6724;DHT22;3399;52.530;13.304;2022-11-20T06:19:19;0.60;99.90
6724;DHT22;3399;52.530;13.304;2022-11-20T06:21:44;0.60;99.90
6724;DHT22;3399;52.530;13.304;2022-11-20T06:24:10;0.60;99.90
6724;DHT22;3399;52.530;13.304;2022-11-20T06:26:36;0.60;99.90
6724;DHT22;3399;52.530;13.304;2022-11-20T06:29:01;0.60;99.90
6724;DHT22;3399;52.530;13.304;2022-11-20T06:31:27;0.60;99.90
6724;DHT22;3399;52.530;13.304;2022-11-20T06:33:53;0.70;99.90
6724;DHT22;3399;52.530;13.304;2022-11-20T06:36:20;0.60;99.90
6724;DHT22;3399;52.530;13.304;2022-11-20T06:38:46;0.70;99.90
6724;DHT22;3399;52.530;13.304;2022-11-20T06:41:15;0.70;99.90
6724;DHT22;3399;52.530;13.304;2022-11-20T06:43:41;0.70;99.90
6724;DHT22;3399;52.530;13.304;2022-11-20T06:46:06;0.80;99.90
6724;DHT22;3399;52.530;13.304;2022-11-20T06:48:32;0.80;99.90
6724;DHT22;3399;52.530;13.304;2022-11-20T06:50:58;0.80;99.90
6724;DHT22;3399;52.530;13.304;2022-11-20T06:53:24;0.80;99.90
6724;DHT22;3399;52.530;13.304;2022-11-20T06:55:50;0.80;99.90
6724;DHT22;3399;52.530;13.304;2022-11-20T06:58:16;0.80;99.90
6724;DHT22;3399;52.530;13.304;2022-11-20T07:00:42;0.80;99.90
6724;DHT22;3399;52.530;13.304;2022-11-20T07:03:10;0.80;99.90
6724;DHT22;3399;52.530;13.304;2022-11-20T07:05:36;0.80;99.90
6724;DHT22;3399;52.530;13.304;2022-11-20T07:08:02;0.80;99.90
6724;DHT22;3399;52.530;13.304;2022-11-20T07:10:28;0.80;99.90
6724;DHT22;3399;52.530;13.304;2022-11-20T07:12:54;0.90;99.90
6724;DHT22;3399;52.530;13.304;2022-11-20T07:15:21;0.90;99.90
6724;DHT22;3399;52.530;13.304;2022-11-20T07:17:47;0.90;99.90
6724;DHT22;3399;52.530;13.304;2022-11-20T07:20:13;1.00;99.90
6724;DHT22;3399;52.530;13.304;2022-11-20T07:22:39;1.00;99.90
6724;DHT22;3399;52.530;13.304;2022-11-20T07:25:05;1.00;99.90
6724;DHT22;3399;52.530;13.304;2022-11-20T07:27:31;1.00;99.90
6724;DHT22;3399;52.530;13.304;2022-11-20T07:29:56;1.10;99.90
6724;DHT22;3399;52.530;13.304;2022-11-20T07:32:22;1.10;99.90
6724;DHT22;3399;52.530;13.304;2022-11-20T07:34:47;1.00;99.90
6724;DHT22;3399;52.530;13.304;2022-11-20T07:37:13;1.00;99.90
6724;DHT22;3399;52.530;13.304;2022-11-20T07:39:39;1.00;99.90
6724;DHT22;3399;52.530;13.304;2022-11-20T07:42:06;1.00;99.90
6724;DHT22;3399;52.530;13.304;2022-11-20T07:44:32;1.00;99.90
6724;DHT22;3399;52.530;13.304;2022-11-20T07:46:57;1.00;99.90
6724;DHT22;3399;52.530;13.304;2022-11-20T07:49:23;1.00;99.90
6724;DHT22;3399;52.530;13.304;2022-11-20T07:51:52;1.10;99.90
6724;DHT22;3399;52.530;13.304;2022-11-20T07:54:21;1.10;99.90
6724;DHT22;3399;52.530;13.304;2022-11-20T07:56:47;1.10;99.90
6724;DHT22;3399;52.530;13.304;2022-11-20T07:59:13;1.10;99.90
6724;DHT22;3399;52.530;13.304;2022-11-20T08:01:39;1.10;99.90
6724;DHT22;3399;52.530;13.304;2022-11-20T08:04:04;1.10;99.90
6724;DHT22;3399;52.530;13.304;2022-11-20T08:06:30;1.10;99.90
6724;DHT22;3399;52.530;13.304;2022-11-20T08:08:55;1.10;99.90
6724;DHT22;3399;52.530;13.304;2022-11-20T08:11:21;1.10;99.90
6724;DHT22;3399;52.530;13.304;2022-11-20T08:14:05;1.20;99.90
6724;DHT22;3399;52.530;13.304;2022-11-20T08:16:37;1.20;99.90
6724;DHT22;3399;52.530;13.304;2022-11-20T08:19:02;1.20;99.90
6724;DHT22;3399;52.530;13.304;2022-11-20T08:21:28;1.10;99.90
6724;DHT22;3399;52.530;13.304;2022-11-20T08:23:53;1.10;99.90
6724;DHT22;3399;52.530;13.304;2022-11-20T08:26:20;1.10;99.90
6724;DHT22;3399;52.530;13.304;2022-11-20T08:28:45;1.10;99.90
6724;DHT22;3399;52.530;13.304;2022-11-20T08:31:11;1.10;99.90
6724;DHT22;3399;52.530;13.304;2022-11-20T08:33:36;1.20;99.90
6724;DHT22;3399;52.530;13.304;2022-11-20T08:36:03;1.20;99.90
6724;DHT22;3399;52.530;13.304;2022-11-20T08:38:29;1.10;99.90
6724;DHT22;3399;52.530;13.304;2022-11-20T08:40:59;1.10;99.90
6724;DHT22;3399;52.530;13.304;2022-11-20T08:43:43;1.10;99.90
6724;DHT22;3399;52.530;13.304;2022-11-20T08:46:08;1.10;99.90
6724;DHT22;3399;52.530;13.304;2022-11-20T08:48:34;1.20;99.90
6724;DHT22;3399;52.530;13.304;2022-11-20T08:50:59;1.30;99.90
6724;DHT22;3399;52.530;13.304;2022-11-20T08:53:25;1.30;99.90
6724;DHT22;3399;52.530;13.304;2022-11-20T08:55:51;1.50;99.90
6724;DHT22;3399;52.530;13.304;2022-11-20T08:58:17;1.60;99.90
6724;DHT22;3399;52.530;13.304;2022-11-20T09:00:42;1.60;99.90
6724;DHT22;3399;52.530;13.304;2022-11-20T09:03:08;1.50;99.90
6724;DHT22;3399;52.530;13.304;2022-11-20T09:05:33;1.50;99.90
6724;DHT22;3399;52.530;13.304;2022-11-20T09:07:59;1.50;99.90
6724;DHT22;3399;52.530;13.304;2022-11-20T09:10:28;1.50;99.90
6724;DHT22;3399;52.530;13.304;2022-11-20T09:12:54;1.40;99.90
6724;DHT22;3399;52.530;13.304;2022-11-20T09:15:20;1.30;99.90
6724;DHT22;3399;52.530;13.304;2022-11-20T09:17:52;1.30;99.90
6724;DHT22;3399;52.530;13.304;2022-11-20T09:20:18;1.40;99.90
6724;DHT22;3399;52.530;13.304;2022-11-20T09:22:44;1.40;99.90
6724;DHT22;3399;52.530;13.304;2022-11-20T09:25:22;1.50;99.90
6724;DHT22;3399;52.530;13.304;2022-11-20T09:27:47;1.50;99.90
6724;DHT22;3399;52.530;13.304;2022-11-20T09:30:14;1.40;99.90
6724;DHT22;3399;52.530;13.304;2022-11-20T09:32:40;1.50;99.90
6724;DHT22;3399;52.530;13.304;2022-11-20T09:35:06;1.60;99.90
6724;DHT22;3399;52.530;13.304;2022-11-20T09:37:32;1.70;99.90
6724;DHT22;3399;52.530;13.304;2022-11-20T09:39:57;1.80;99.90
6724;DHT22;3399;52.530;13.304;2022-11-20T09:42:47;1.70;99.90
6724;DHT22;3399;52.530;13.304;2022-11-20T09:51:36;1.90;99.90
6724;DHT22;3399;52.530;13.304;2022-11-20T09:56:38;2.20;99.90
6724;DHT22;3399;52.530;13.304;2022-11-20T09:59:06;2.30;99.90
6724;DHT22;3399;52.530;13.304;2022-11-20T10:01:35;2.40;99.90
6724;DHT22;3399;52.530;13.304;2022-11-20T10:06:43;2.40;99.90
6724;DHT22;3399;52.530;13.304;2022-11-20T10:11:56;2.30;99.90
6724;DHT22;3399;52.530;13.304;2022-11-20T10:17:13;2.20;99.90
6724;DHT22;3399;52.530;13.304;2022-11-20T10:20:02;2.30;99.90
6724;DHT22;3399;52.530;13.304;2022-11-20T10:22:47;2.30;99.90
6724;DHT22;3399;52.530;13.304;2022-11-20T10:28:20;2.40;99.90
6724;DHT22;3399;52.530;13.304;2022-11-20T10:31:03;2.30;99.90
6724;DHT22;3399;52.530;13.304;2022-11-20T10:33:42;2.40;99.90
6724;DHT22;3399;52.530;13.304;2022-11-20T10:36:22;2.50;99.90
6724;DHT22;3399;52.530;13.304;2022-11-20T10:39:00;2.50;99.90
6724;DHT22;3399;52.530;13.304;2022-11-20T10:41:29;2.60;99.90
6724;DHT22;3399;52.530;13.304;2022-11-20T10:44:16;2.60;99.90
6724;DHT22;3399;52.530;13.304;2022-11-20T10:47:04;2.50;99.90
6724;DHT22;3399;52.530;13.304;2022-11-20T10:49:31;2.60;99.90
6724;DHT22;3399;52.530;13.304;2022-11-20T10:52:07;2.70;99.90
6724;DHT22;3399;52.530;13.304;2022-11-20T10:54:37;2.80;99.90
6724;DHT22;3399;52.530;13.304;2022-11-20T11:00:05;2.80;99.90
6724;DHT22;3399;52.530;13.304;2022-11-20T11:02:44;3.00;99.90
6724;DHT22;3399;52.530;13.304;2022-11-20T11:07:45;3.20;99.90
6724;DHT22;3399;52.530;13.304;2022-11-20T11:10:39;3.40;99.90
6724;DHT22;3399;52.530;13.304;2022-11-20T11:13:07;3.40;99.90
6724;DHT22;3399;52.530;13.304;2022-11-20T11:15:43;3.30;99.90
6724;DHT22;3399;52.530;13.304;2022-11-20T11:18:10;3.50;99.90
6724;DHT22;3399;52.530;13.304;2022-11-20T11:20:36;3.50;99.90
6724;DHT22;3399;52.530;13.304;2022-11-20T11:23:02;3.50;99.90
6724;DHT22;3399;52.530;13.304;2022-11-20T11:25:36;3.50;99.90
6724;DHT22;3399;52.530;13.304;2022-11-20T11:28:20;3.60;99.90
6724;DHT22;3399;52.530;13.304;2022-11-20T11:30:46;3.60;99.90
6724;DHT22;3399;52.530;13.304;2022-11-20T11:33:25;3.60;99.90
6724;DHT22;3399;52.530;13.304;2022-11-20T11:35:53;3.50;99.90
6724;DHT22;3399;52.530;13.304;2022-11-20T11:38:36;3.40;99.90
6724;DHT22;3399;52.530;13.304;2022-11-20T11:41:04;3.30;99.90
6724;DHT22;3399;52.530;13.304;2022-11-20T11:43:33;3.20;99.90
6724;DHT22;3399;52.530;13.304;2022-11-20T11:46:33;3.10;99.90
6724;DHT22;3399;52.530;13.304;2022-11-20T11:51:53;2.80;99.90
6724;DHT22;3399;52.530;13.304;2022-11-20T11:57:00;2.60;99.90
6724;DHT22;3399;52.530;13.304;2022-11-20T11:59:35;2.60;99.90
6724;DHT22;3399;52.530;13.304;2022-11-20T12:02:24;2.50;99.90
6724;DHT22;3399;52.530;13.304;2022-11-20T12:04:55;2.50;99.90
6724;DHT22;3399;52.530;13.304;2022-11-20T12:07:38;2.60;99.90
6724;DHT22;3399;52.530;13.304;2022-11-20T12:10:19;2.60;99.90
6724;DHT22;3399;52.530;13.304;2022-11-20T12:12:50;2.70;99.90
6724;DHT22;3399;52.530;13.304;2022-11-20T12:15:30;2.70;99.90
6724;DHT22;3399;52.530;13.304;2022-11-20T12:17:56;2.90;99.90
6724;DHT22;3399;52.530;13.304;2022-11-20T12:20:25;2.90;99.90
6724;DHT22;3399;52.530;13.304;2022-11-20T12:25:54;2.90;99.90
6724;DHT22;3399;52.530;13.304;2022-11-20T12:36:32;3.00;99.90
6724;DHT22;3399;52.530;13.304;2022-11-20T12:42:05;2.90;99.90
6724;DHT22;3399;52.530;13.304;2022-11-20T12:50:36;3.10;99.90
6724;DHT22;3399;52.530;13.304;2022-11-20T12:53:25;3.40;99.90
6724;DHT22;3399;52.530;13.304;2022-11-20T12:56:17;4.10;99.90
6724;DHT22;3399;52.530;13.304;2022-11-20T13:01:25;4.50;99.90
6724;DHT22;3399;52.530;13.304;2022-11-20T13:06:56;4.30;99.90
6724;DHT22;3399;52.530;13.304;2022-11-20T13:09:23;4.10;99.90
6724;DHT22;3399;52.530;13.304;2022-11-20T13:17:45;3.60;99.90
6724;DHT22;3399;52.530;13.304;2022-11-20T13:20:17;3.60;99.90
6724;DHT22;3399;52.530;13.304;2022-11-20T13:22:53;3.40;99.90
6724;DHT22;3399;52.530;13.304;2022-11-20T13:25:36;3.30;99.90
6724;DHT22;3399;52.530;13.304;2022-11-20T13:28:28;3.30;99.90
6724;DHT22;3399;52.530;13.304;2022-11-20T13:30:56;3.10;99.90
6724;DHT22;3399;52.530;13.304;2022-11-20T13:33:34;3.10;99.90
6724;DHT22;3399;52.530;13.304;2022-11-20T13:36:07;3.00;99.90
6724;DHT22;3399;52.530;13.304;2022-11-20T13:38:47;2.90;99.90
6724;DHT22;3399;52.530;13.304;2022-11-20T13:41:33;2.90;99.90
6724;DHT22;3399;52.530;13.304;2022-11-20T13:46:37;2.60;99.90
6724;DHT22;3399;52.530;13.304;2022-11-20T13:49:08;2.50;99.90
6724;DHT22;3399;52.530;13.304;2022-11-20T13:51:46;2.40;99.90
6724;DHT22;3399;52.530;13.304;2022-11-20T13:59:45;2.30;99.90
6724;DHT22;3399;52.530;13.304;2022-11-20T14:02:18;2.20;99.90
6724;DHT22;3399;52.530;13.304;2022-11-20T14:04:47;2.20;99.90
6724;DHT22;3399;52.530;13.304;2022-11-20T14:07:14;2.10;99.90
6724;DHT22;3399;52.530;13.304;2022-11-20T14:09:53;2.00;99.90
6724;DHT22;3399;52.530;13.304;2022-11-20T14:12:22;2.00;99.90
6724;DHT22;3399;52.530;13.304;2022-11-20T14:14:52;2.10;99.90
6724;DHT22;3399;52.530;13.304;2022-11-20T14:17:19;2.10;99.90
6724;DHT22;3399;52.530;13.304;2022-11-20T14:19:47;2.00;99.90
6724;DHT22;3399;52.530;13.304;2022-11-20T14:24:48;1.90;99.90
6724;DHT22;3399;52.530;13.304;2022-11-20T14:27:16;1.90;99.90
6724;DHT22;3399;52.530;13.304;2022-11-20T14:29:44;1.90;99.90
6724;DHT22;3399;52.530;13.304;2022-11-20T14:32:10;1.80;99.90
6724;DHT22;3399;52.530;13.304;2022-11-20T14:34:41;1.80;99.90
6724;DHT22;3399;52.530;13.304;2022-11-20T14:37:13;1.70;99.90
6724;DHT22;3399;52.530;13.304;2022-11-20T14:39:47;1.70;99.90
6724;DHT22;3399;52.530;13.304;2022-11-20T14:42:18;1.60;99.90
6724;DHT22;3399;52.530;13.304;2022-11-20T14:44:44;1.60;99.90
6724;DHT22;3399;52.530;13.304;2022-11-20T14:47:12;1.60;99.90
6724;DHT22;3399;52.530;13.304;2022-11-20T14:49:38;1.60;99.90
6724;DHT22;3399;52.530;13.304;2022-11-20T14:52:24;1.70;99.90
6724;DHT22;3399;52.530;13.304;2022-11-20T14:54:55;1.80;99.90
6724;DHT22;3399;52.530;13.304;2022-11-20T14:57:29;1.80;99.90
6724;DHT22;3399;52.530;13.304;2022-11-20T15:02:43;1.90;99.90
6724;DHT22;3399;52.530;13.304;2022-11-20T15:05:09;1.90;99.90
6724;DHT22;3399;52.530;13.304;2022-11-20T15:07:41;1.80;99.90
6724;DHT22;3399;52.530;13.304;2022-11-20T15:10:13;1.80;99.90
6724;DHT22;3399;52.530;13.304;2022-11-20T15:13:05;1.70;99.90
6724;DHT22;3399;52.530;13.304;2022-11-20T15:15:46;1.70;99.90
6724;DHT22;3399;52.530;13.304;2022-11-20T15:18:18;1.60;99.90
6724;DHT22;3399;52.530;13.304;2022-11-20T15:20:45;1.60;99.90
6724;DHT22;3399;52.530;13.304;2022-11-20T15:23:12;1.70;99.90
6724;DHT22;3399;52.530;13.304;2022-11-20T15:25:39;1.70;99.90
6724;DHT22;3399;52.530;13.304;2022-11-20T15:28:16;1.70;99.90
6724;DHT22;3399;52.530;13.304;2022-11-20T15:30:42;1.70;99.90
6724;DHT22;3399;52.530;13.304;2022-11-20T15:33:09;1.70;99.90
6724;DHT22;3399;52.530;13.304;2022-11-20T15:35:34;1.70;99.90
6724;DHT22;3399;52.530;13.304;2022-11-20T15:38:00;1.70;99.90
6724;DHT22;3399;52.530;13.304;2022-11-20T15:40:25;1.70;99.90
6724;DHT22;3399;52.530;13.304;2022-11-20T15:42:51;1.70;99.90
6724;DHT22;3399;52.530;13.304;2022-11-20T15:45:41;1.70;99.90
6724;DHT22;3399;52.530;13.304;2022-11-20T15:48:11;1.70;99.90
6724;DHT22;3399;52.530;13.304;2022-11-20T15:50:43;1.70;99.90
6724;DHT22;3399;52.530;13.304;2022-11-20T15:53:10;1.60;99.90
6724;DHT22;3399;52.530;13.304;2022-11-20T15:55:35;1.40;99.90
6724;DHT22;3399;52.530;13.304;2022-11-20T15:58:01;1.40;99.90
6724;DHT22;3399;52.530;13.304;2022-11-20T16:00:26;1.30;99.90
6724;DHT22;3399;52.530;13.304;2022-11-20T16:02:52;1.20;99.90
6724;DHT22;3399;52.530;13.304;2022-11-20T16:05:17;1.10;99.90
6724;DHT22;3399;52.530;13.304;2022-11-20T16:07:43;1.00;99.90
6724;DHT22;3399;52.530;13.304;2022-11-20T16:10:09;1.00;99.90
6724;DHT22;3399;52.530;13.304;2022-11-20T16:12:34;0.90;99.90
6724;DHT22;3399;52.530;13.304;2022-11-20T16:15:20;0.80;99.90
6724;DHT22;3399;52.530;13.304;2022-11-20T16:18:04;0.80;99.90
6724;DHT22;3399;52.530;13.304;2022-11-20T16:20:29;0.70;99.90
6724;DHT22;3399;52.530;13.304;2022-11-20T16:22:55;0.70;99.90
6724;DHT22;3399;52.530;13.304;2022-11-20T16:25:20;0.60;99.90
6724;DHT22;3399;52.530;13.304;2022-11-20T16:27:46;0.60;99.90
6724;DHT22;3399;52.530;13.304;2022-11-20T16:30:11;0.60;99.90
6724;DHT22;3399;52.530;13.304;2022-11-20T16:32:37;0.50;99.90
6724;DHT22;3399;52.530;13.304;2022-11-20T16:35:04;0.50;99.90
6724;DHT22;3399;52.530;13.304;2022-11-20T16:37:29;0.50;99.90
6724;DHT22;3399;52.530;13.304;2022-11-20T16:39:55;0.40;99.90
6724;DHT22;3399;52.530;13.304;2022-11-20T16:42:21;0.40;99.90
6724;DHT22;3399;52.530;13.304;2022-11-20T16:44:47;0.40;99.90
6724;DHT22;3399;52.530;13.304;2022-11-20T16:47:12;0.40;99.90
6724;DHT22;3399;52.530;13.304;2022-11-20T16:49:38;0.40;99.90
6724;DHT22;3399;52.530;13.304;2022-11-20T16:52:03;0.40;99.90
6724;DHT22;3399;52.530;13.304;2022-11-20T16:54:29;0.40;99.90
6724;DHT22;3399;52.530;13.304;2022-11-20T16:56:54;0.40;99.90
6724;DHT22;3399;52.530;13.304;2022-11-20T16:59:20;0.40;99.90
6724;DHT22;3399;52.530;13.304;2022-11-20T17:01:46;0.30;99.90
6724;DHT22;3399;52.530;13.304;2022-11-20T17:04:11;0.40;99.90
6724;DHT22;3399;52.530;13.304;2022-11-20T17:06:39;0.30;99.90
6724;DHT22;3399;52.530;13.304;2022-11-20T17:09:05;0.40;99.90
6724;DHT22;3399;52.530;13.304;2022-11-20T17:11:34;0.40;99.90
6724;DHT22;3399;52.530;13.304;2022-11-20T17:14:00;0.30;99.90
6724;DHT22;3399;52.530;13.304;2022-11-20T17:16:26;0.30;99.90
6724;DHT22;3399;52.530;13.304;2022-11-20T17:18:57;0.40;99.90
6724;DHT22;3399;52.530;13.304;2022-11-20T17:21:23;0.50;99.90
6724;DHT22;3399;52.530;13.304;2022-11-20T17:23:48;0.60;99.90
6724;DHT22;3399;52.530;13.304;2022-11-20T17:26:16;0.80;99.90
6724;DHT22;3399;52.530;13.304;2022-11-20T17:28:51;1.00;99.90